Toronto Islands, Canada
Current Conditions -  °F | °C
As of 1:18 PM on Thursday 29 Jan 2015 (Local Time) from CYTZ Reporting Station
Light Snow Light Snow  
Wind Chill: 20°   Ceiling: 1600
Heat Index: 30°   Visibility: 0.75mi
Dew Point: 28°   Wind: 14mph
Humidity: 93%   Direction: 220°SW
Pressure: 29.79"   Gusts: 20mph
Location:  43.62°N, 79.38°W
Report Text: CYTZ 291818Z AUTO 22012G17KT 3/4SM R26/5500FT/D -SN BKN016 OVC033 M01/M02 A2979 RMK SLP090
Loading
Personal Weather Stations






























Interactive Weather Map New forecast layout! Learn more

10-Day Weather Forecast

Advertisements
Track Severe Weather on mobile